sensor_id;sensor_type;location;lat;lon;timestamp;pressure;altitude;pressure_sealevel;temperature;humidity
67457;BME280;54319;52.038;4.640;2023-07-20T00:00:54;101577.72;;;15.54;100.00
67457;BME280;54319;52.038;4.640;2023-07-20T00:03:21;101576.47;;;15.49;100.00
67457;BME280;54319;52.038;4.640;2023-07-20T00:05:51;101579.22;;;15.49;100.00
67457;BME280;54319;52.038;4.640;2023-07-20T00:08:18;101562.88;;;15.36;100.00
67457;BME280;54319;52.038;4.640;2023-07-20T00:10:45;101579.06;;;15.44;100.00
67457;BME280;54319;52.038;4.640;2023-07-20T00:13:11;101582.06;;;15.43;100.00
67457;BME280;54319;52.038;4.640;2023-07-20T00:15:38;101589.69;;;15.41;100.00
67457;BME280;54319;52.038;4.640;2023-07-20T00:18:05;101585.03;;;15.41;100.00
67457;BME280;54319;52.038;4.640;2023-07-20T00:20:33;101567.75;;;15.34;100.00
67457;BME280;54319;52.038;4.640;2023-07-20T00:23:03;101582.06;;;15.43;100.00
67457;BME280;54319;52.038;4.640;2023-07-20T00:25:30;101578.69;;;15.41;100.00
67457;BME280;54319;52.038;4.640;2023-07-20T00:27:56;101582.13;;;15.36;100.00
67457;BME280;54319;52.038;4.640;2023-07-20T00:30:23;101565.75;;;15.23;100.00
67457;BME280;54319;52.038;4.640;2023-07-20T00:32:50;101590.81;;;15.33;100.00
67457;BME280;54319;52.038;4.640;2023-07-20T00:35:16;101585.16;;;15.28;100.00
67457;BME280;54319;52.038;4.640;2023-07-20T00:37:43;101585.00;;;15.23;100.00
67457;BME280;54319;52.038;4.640;2023-07-20T00:40:11;101584.84;;;15.17;100.00
67457;BME280;54319;52.038;4.640;2023-07-20T00:42:38;101581.81;;;15.00;100.00
67457;BME280;54319;52.038;4.640;2023-07-20T00:45:06;101582.19;;;15.04;100.00
67457;BME280;54319;52.038;4.640;2023-07-20T00:47:32;101546.69;;;14.77;100.00
67457;BME280;54319;52.038;4.640;2023-07-20T00:50:02;101578.25;;;14.93;100.00
67457;BME280;54319;52.038;4.640;2023-07-20T00:52:28;101586.56;;;14.86;100.00
67457;BME280;54319;52.038;4.640;2023-07-20T00:54:56;101584.31;;;14.76;100.00
67457;BME280;54319;52.038;4.640;2023-07-20T00:57:24;101586.03;;;14.71;100.00
67457;BME280;54319;52.038;4.640;2023-07-20T00:59:52;101580.94;;;14.68;100.00
67457;BME280;54319;52.038;4.640;2023-07-20T01:02:19;101576.13;;;14.63;100.00
67457;BME280;54319;52.038;4.640;2023-07-20T01:04:44;101578.47;;;14.59;100.00
67457;BME280;54319;52.038;4.640;2023-07-20T01:07:15;101582.72;;;14.55;100.00
67457;BME280;54319;52.038;4.640;2023-07-20T01:09:48;101583.38;;;14.51;100.00
67457;BME280;54319;52.038;4.640;2023-07-20T01:12:22;101575.63;;;14.41;100.00
67457;BME280;54319;52.038;4.640;2023-07-20T01:14:54;101579.44;;;14.40;100.00
67457;BME280;54319;52.038;4.640;2023-07-20T01:17:21;101579.03;;;14.36;100.00
67457;BME280;54319;52.038;4.640;2023-07-20T01:19:49;101579.50;;;14.26;100.00
67457;BME280;54319;52.038;4.640;2023-07-20T01:22:26;101542.88;;;14.00;100.00
67457;BME280;54319;52.038;4.640;2023-07-20T01:25:21;101586.28;;;14.24;100.00
67457;BME280;54319;52.038;4.640;2023-07-20T01:28:27;101591.56;;;14.18;100.00
67457;BME280;54319;52.038;4.640;2023-07-20T01:31:17;101595.59;;;14.16;100.00
67457;BME280;54319;52.038;4.640;2023-07-20T01:33:45;101610.59;;;14.13;100.00
67457;BME280;54319;52.038;4.640;2023-07-20T01:36:14;101598.38;;;14.09;100.00
67457;BME280;54319;52.038;4.640;2023-07-20T01:38:42;101596.91;;;14.07;100.00
67457;BME280;54319;52.038;4.640;2023-07-20T01:41:10;101586.78;;;14.00;100.00
67457;BME280;54319;52.038;4.640;2023-07-20T01:43:37;101595.44;;;13.97;100.00
67457;BME280;54319;52.038;4.640;2023-07-20T01:46:04;101591.88;;;13.97;100.00
67457;BME280;54319;52.038;4.640;2023-07-20T01:48:32;101596.94;;;13.93;100.00
67457;BME280;54319;52.038;4.640;2023-07-20T01:50:59;101600.34;;;13.88;100.00
67457;BME280;54319;52.038;4.640;2023-07-20T01:53:25;101602.66;;;13.85;100.00
67457;BME280;54319;52.038;4.640;2023-07-20T01:55:52;101606.69;;;13.82;100.00
67457;BME280;54319;52.038;4.640;2023-07-20T01:58:20;101606.28;;;13.79;100.00
67457;BME280;54319;52.038;4.640;2023-07-20T02:00:47;101594.31;;;13.66;100.00
67457;BME280;54319;52.038;4.640;2023-07-20T02:03:14;101602.09;;;13.69;100.00
67457;BME280;54319;52.038;4.640;2023-07-20T02:05:43;101599.16;;;13.64;100.00
67457;BME280;54319;52.038;4.640;2023-07-20T02:08:10;101605.91;;;13.62;100.00
67457;BME280;54319;52.038;4.640;2023-07-20T02:10:36;101606.53;;;13.57;100.00
67457;BME280;54319;52.038;4.640;2023-07-20T02:13:03;101597.09;;;13.46;100.00
67457;BME280;54319;52.038;4.640;2023-07-20T02:15:30;101609.31;;;13.50;100.00
67457;BME280;54319;52.038;4.640;2023-07-20T02:17:56;101601.72;;;13.45;100.00
67457;BME280;54319;52.038;4.640;2023-07-20T02:20:23;101591.56;;;13.39;100.00
67457;BME280;54319;52.038;4.640;2023-07-20T02:22:51;101600.66;;;13.46;100.00
67457;BME280;54319;52.038;4.640;2023-07-20T02:25:18;101601.06;;;13.43;100.00
67457;BME280;54319;52.038;4.640;2023-07-20T02:27:44;101608.00;;;13.39;100.00
67457;BME280;54319;52.038;4.640;2023-07-20T02:30:11;101607.56;;;13.36;100.00
67457;BME280;54319;52.038;4.640;2023-07-20T02:32:39;101603.81;;;13.30;100.00
67457;BME280;54319;52.038;4.640;2023-07-20T02:35:06;101594.97;;;13.28;100.00
67457;BME280;54319;52.038;4.640;2023-07-20T02:37:33;101607.16;;;13.25;100.00
67457;BME280;54319;52.038;4.640;2023-07-20T02:40:01;101594.94;;;13.14;100.00
67457;BME280;54319;52.038;4.640;2023-07-20T02:42:29;101606.09;;;13.20;100.00
67457;BME280;54319;52.038;4.640;2023-07-20T02:44:56;101607.16;;;13.18;100.00
67457;BME280;54319;52.038;4.640;2023-07-20T02:47:22;101602.09;;;13.15;100.00
67457;BME280;54319;52.038;4.640;2023-07-20T02:49:49;101593.25;;;13.13;100.00
67457;BME280;54319;52.038;4.640;2023-07-20T02:52:16;101610.97;;;13.17;100.00
67457;BME280;54319;52.038;4.640;2023-07-20T02:54:42;101616.88;;;13.14;100.00
67457;BME280;54319;52.038;4.640;2023-07-20T02:57:10;101611.81;;;13.11;100.00
67457;BME280;54319;52.038;4.640;2023-07-20T02:59:37;101612.03;;;13.10;100.00
67457;BME280;54319;52.038;4.640;2023-07-20T03:02:04;101621.31;;;13.09;100.00
67457;BME280;54319;52.038;4.640;2023-07-20T03:04:30;101624.44;;;13.06;100.00
67457;BME280;54319;52.038;4.640;2023-07-20T03:06:57;101620.44;;;13.01;100.00
67457;BME280;54319;52.038;4.640;2023-07-20T03:09:25;101627.59;;;13.02;100.00
67457;BME280;54319;52.038;4.640;2023-07-20T03:11:52;101632.44;;;13.00;100.00
67457;BME280;54319;52.038;4.640;2023-07-20T03:14:20;101640.03;;;12.98;100.00
67457;BME280;54319;52.038;4.640;2023-07-20T03:16:49;101628.66;;;12.88;100.00
67457;BME280;54319;52.038;4.640;2023-07-20T03:19:15;101640.66;;;12.94;100.00
67457;BME280;54319;52.038;4.640;2023-07-20T03:21:42;101634.97;;;12.88;100.00
67457;BME280;54319;52.038;4.640;2023-07-20T03:24:09;101617.69;;;12.81;100.00
67457;BME280;54319;52.038;4.640;2023-07-20T03:26:36;101629.50;;;12.88;100.00
67457;BME280;54319;52.038;4.640;2023-07-20T03:29:04;101647.84;;;12.95;100.00
67457;BME280;54319;52.038;4.640;2023-07-20T03:31:33;101640.44;;;12.95;100.00
67457;BME280;54319;52.038;4.640;2023-07-20T03:33:59;101645.09;;;12.95;100.00
67457;BME280;54319;52.038;4.640;2023-07-20T03:36:26;101647.84;;;12.95;100.00
67457;BME280;54319;52.038;4.640;2023-07-20T03:38:53;101646.34;;;12.92;100.00
67457;BME280;54319;52.038;4.640;2023-07-20T03:41:19;101647.63;;;12.90;100.00
67457;BME280;54319;52.038;4.640;2023-07-20T03:43:47;101643.19;;;12.88;100.00
67457;BME280;54319;52.038;4.640;2023-07-20T03:46:14;101628.00;;;12.79;100.00
67457;BME280;54319;52.038;4.640;2023-07-20T03:48:42;101646.13;;;12.87;100.00
67457;BME280;54319;52.038;4.640;2023-07-20T03:51:09;101644.00;;;12.82;100.00
67457;BME280;54319;52.038;4.640;2023-07-20T03:53:35;101637.47;;;12.83;100.00
67457;BME280;54319;52.038;4.640;2023-07-20T03:56:02;101651.78;;;12.85;100.00
67457;BME280;54319;52.038;4.640;2023-07-20T03:58:29;101640.66;;;12.87;100.00
67457;BME280;54319;52.038;4.640;2023-07-20T04:00:57;101627.34;;;12.77;100.00
67457;BME280;54319;52.038;4.640;2023-07-20T04:03:24;101623.56;;;12.71;100.00
67457;BME280;54319;52.038;4.640;2023-07-20T04:05:54;101648.44;;;12.83;100.00
67457;BME280;54319;52.038;4.640;2023-07-20T04:08:22;101642.31;;;12.81;100.00
67457;BME280;54319;52.038;4.640;2023-07-20T04:10:49;101619.75;;;12.66;100.00
67457;BME280;54319;52.038;4.640;2023-07-20T04:13:15;101653.06;;;12.83;100.00
67457;BME280;54319;52.038;4.640;2023-07-20T04:15:42;101645.06;;;12.88;100.00
67457;BME280;54319;52.038;4.640;2023-07-20T04:18:09;101610.91;;;12.64;100.00
67457;BME280;54319;52.038;4.640;2023-07-20T04:20:35;101650.78;;;12.93;100.00
67457;BME280;54319;52.038;4.640;2023-07-20T04:23:03;101648.47;;;12.97;100.00
67457;BME280;54319;52.038;4.640;2023-07-20T04:25:30;101643.41;;;12.94;100.00
67457;BME280;54319;52.038;4.640;2023-07-20T04:28:04;101597.03;;;12.72;100.00
67457;BME280;54319;52.038;4.640;2023-07-20T04:30:34;101653.31;;;13.08;100.00
67457;BME280;54319;52.038;4.640;2023-07-20T04:33:00;101660.91;;;13.13;100.00
67457;BME280;54319;52.038;4.640;2023-07-20T04:35:51;101663.66;;;13.20;100.00
67457;BME280;54319;52.038;4.640;2023-07-20T04:38:20;101660.72;;;13.28;100.00
67457;BME280;54319;52.038;4.640;2023-07-20T04:40:48;101655.66;;;13.31;100.00
67457;BME280;54319;52.038;4.640;2023-07-20T04:43:16;101635.00;;;13.29;100.00
67457;BME280;54319;52.038;4.640;2023-07-20T04:45:43;101647.00;;;13.41;100.00
67457;BME280;54319;52.038;4.640;2023-07-20T04:48:11;101658.63;;;13.57;100.00
67457;BME280;54319;52.038;4.640;2023-07-20T04:50:38;101651.00;;;13.59;100.00
67457;BME280;54319;52.038;4.640;2023-07-20T04:53:05;101661.13;;;13.79;100.00
67457;BME280;54319;52.038;4.640;2023-07-20T04:55:33;101651.59;;;13.88;100.00
67457;BME280;54319;52.038;4.640;2023-07-20T04:58:01;101659.16;;;13.99;100.00
67457;BME280;54319;52.038;4.640;2023-07-20T05:00:28;101663.13;;;14.17;100.00
67457;BME280;54319;52.038;4.640;2023-07-20T05:02:55;101665.00;;;14.23;100.00
67457;BME280;54319;52.038;4.640;2023-07-20T05:05:22;101667.31;;;14.33;100.00
67457;BME280;54319;52.038;4.640;2023-07-20T05:07:48;101670.22;;;14.45;100.00
67457;BME280;54319;52.038;4.640;2023-07-20T05:10:15;101657.91;;;14.54;100.00
67457;BME280;54319;52.038;4.640;2023-07-20T05:12:44;101664.47;;;14.53;100.00
67457;BME280;54319;52.038;4.640;2023-07-20T05:15:10;101668.03;;;14.60;100.00
67457;BME280;54319;52.038;4.640;2023-07-20T05:17:37;101670.56;;;14.62;100.00
67457;BME280;54319;52.038;4.640;2023-07-20T05:20:06;101673.94;;;14.64;100.00
67457;BME280;54319;52.038;4.640;2023-07-20T05:22:35;101673.69;;;14.66;100.00
67457;BME280;54319;52.038;4.640;2023-07-20T05:25:06;101672.63;;;14.67;100.00
67457;BME280;54319;52.038;4.640;2023-07-20T05:27:32;101668.63;;;14.62;100.00
67457;BME280;54319;52.038;4.640;2023-07-20T05:30:01;101669.50;;;14.63;100.00
67457;BME280;54319;52.038;4.640;2023-07-20T05:32:27;101672.00;;;14.65;100.00
67457;BME280;54319;52.038;4.640;2023-07-20T05:34:54;101663.78;;;14.65;100.00
67457;BME280;54319;52.038;4.640;2023-07-20T05:37:21;101673.25;;;14.69;100.00
67457;BME280;54319;52.038;4.640;2023-07-20T05:39:47;101670.75;;;14.67;100.00
67457;BME280;54319;52.038;4.640;2023-07-20T05:42:14;101669.25;;;14.65;100.00
67457;BME280;54319;52.038;4.640;2023-07-20T05:44:41;101675.19;;;14.61;100.00
67457;BME280;54319;52.038;4.640;2023-07-20T05:47:09;101667.56;;;14.64;100.00
67457;BME280;54319;52.038;4.640;2023-07-20T05:49:36;101670.13;;;14.65;100.00
67457;BME280;54319;52.038;4.640;2023-07-20T05:52:02;101665.69;;;14.64;100.00
67457;BME280;54319;52.038;4.640;2023-07-20T05:54:29;101661.88;;;14.65;100.00
67457;BME280;54319;52.038;4.640;2023-07-20T05:56:56;101673.66;;;14.79;100.00
67457;BME280;54319;52.038;4.640;2023-07-20T05:59:23;101671.28;;;14.89;100.00
67457;BME280;54319;52.038;4.640;2023-07-20T06:01:50;101656.03;;;14.94;100.00
67457;BME280;54319;52.038;4.640;2023-07-20T06:04:18;101677.00;;;15.13;100.00
67457;BME280;54319;52.038;4.640;2023-07-20T06:06:45;101674.19;;;15.27;100.00
67457;BME280;54319;52.038;4.640;2023-07-20T06:09:11;101670.69;;;15.38;100.00
67457;BME280;54319;52.038;4.640;2023-07-20T06:11:38;101662.25;;;15.40;100.00
67457;BME280;54319;52.038;4.640;2023-07-20T06:14:05;101675.91;;;15.46;100.00
67457;BME280;54319;52.038;4.640;2023-07-20T06:16:32;101686.47;;;15.49;100.00
67457;BME280;54319;52.038;4.640;2023-07-20T06:19:00;101690.47;;;15.54;100.00
67457;BME280;54319;52.038;4.640;2023-07-20T06:21:27;101681.75;;;15.57;100.00
67457;BME280;54319;52.038;4.640;2023-07-20T06:23:54;101683.66;;;15.56;100.00
67457;BME280;54319;52.038;4.640;2023-07-20T06:26:21;101688.50;;;15.61;100.00
67457;BME280;54319;52.038;4.640;2023-07-20T06:28:47;101693.47;;;15.71;100.00
67457;BME280;54319;52.038;4.640;2023-07-20T06:31:14;101691.72;;;15.76;100.00
67457;BME280;54319;52.038;4.640;2023-07-20T06:33:41;101689.59;;;15.78;100.00
67457;BME280;54319;52.038;4.640;2023-07-20T06:36:07;101690.81;;;15.83;100.00
67457;BME280;54319;52.038;4.640;2023-07-20T06:38:35;101690.44;;;15.79;100.00
67457;BME280;54319;52.038;4.640;2023-07-20T06:41:02;101692.78;;;15.75;100.00
67457;BME280;54319;52.038;4.640;2023-07-20T06:43:29;101689.44;;;15.73;100.00
67457;BME280;54319;52.038;4.640;2023-07-20T06:45:55;101694.78;;;15.68;100.00
67457;BME280;54319;52.038;4.640;2023-07-20T06:48:22;101683.44;;;15.58;100.00
67457;BME280;54319;52.038;4.640;2023-07-20T06:50:49;101689.41;;;15.55;100.00
67457;BME280;54319;52.038;4.640;2023-07-20T06:53:15;101687.94;;;15.52;100.00
67457;BME280;54319;52.038;4.640;2023-07-20T06:55:44;101697.66;;;15.55;100.00
67457;BME280;54319;52.038;4.640;2023-07-20T06:58:11;101704.63;;;15.51;100.00
67457;BME280;54319;52.038;4.640;2023-07-20T07:00:38;101685.69;;;15.42;100.00
67457;BME280;54319;52.038;4.640;2023-07-20T07:03:04;101702.28;;;15.54;100.00
67457;BME280;54319;52.038;4.640;2023-07-20T07:05:35;101701.19;;;15.62;100.00
67457;BME280;54319;52.038;4.640;2023-07-20T07:08:03;101701.97;;;15.69;100.00
67457;BME280;54319;52.038;4.640;2023-07-20T07:10:29;101709.53;;;15.74;100.00
67457;BME280;54319;52.038;4.640;2023-07-20T07:12:57;101701.28;;;15.74;100.00
67457;BME280;54319;52.038;4.640;2023-07-20T07:15:25;101702.22;;;15.86;100.00
67457;BME280;54319;52.038;4.640;2023-07-20T07:17:52;101704.03;;;15.99;100.00
67457;BME280;54319;52.038;4.640;2023-07-20T07:20:19;101700.72;;;16.09;100.00
67457;BME280;54319;52.038;4.640;2023-07-20T07:22:46;101700.44;;;16.17;100.00
67457;BME280;54319;52.038;4.640;2023-07-20T07:25:13;101702.38;;;16.35;100.00
67457;BME280;54319;52.038;4.640;2023-07-20T07:27:39;101700.72;;;16.96;100.00
67457;BME280;54319;52.038;4.640;2023-07-20T07:30:08;101707.38;;;17.73;99.30
67457;BME280;54319;52.038;4.640;2023-07-20T07:32:35;101704.00;;;18.30;88.17
67457;BME280;54319;52.038;4.640;2023-07-20T07:35:02;101705.81;;;18.65;84.47
67457;BME280;54319;52.038;4.640;2023-07-20T07:37:28;101698.78;;;18.87;86.85
67457;BME280;54319;52.038;4.640;2023-07-20T07:39:55;101704.78;;;19.13;84.03
67457;BME280;54319;52.038;4.640;2023-07-20T07:42:22;101702.97;;;19.35;82.50
67457;BME280;54319;52.038;4.640;2023-07-20T07:44:49;101704.88;;;19.69;79.09
67457;BME280;54319;52.038;4.640;2023-07-20T07:47:17;101707.06;;;20.01;73.82
67457;BME280;54319;52.038;4.640;2023-07-20T07:49:43;101705.97;;;20.24;72.10
67457;BME280;54319;52.038;4.640;2023-07-20T07:52:10;101711.41;;;20.59;69.33
67457;BME280;54319;52.038;4.640;2023-07-20T07:54:37;101707.47;;;20.54;68.95
67457;BME280;54319;52.038;4.640;2023-07-20T07:57:04;101711.97;;;20.83;67.00
67457;BME280;54319;52.038;4.640;2023-07-20T07:59:30;101708.75;;;20.91;63.50
67457;BME280;54319;52.038;4.640;2023-07-20T08:02:02;101712.25;;;20.59;69.06
67457;BME280;54319;52.038;4.640;2023-07-20T08:04:30;101714.13;;;19.92;67.60
67457;BME280;54319;52.038;4.640;2023-07-20T08:06:56;101718.13;;;19.67;70.60
67457;BME280;54319;52.038;4.640;2023-07-20T08:09:24;101715.97;;;19.69;74.29
67457;BME280;54319;52.038;4.640;2023-07-20T08:11:51;101720.50;;;19.75;72.74
67457;BME280;54319;52.038;4.640;2023-07-20T08:14:17;101700.19;;;19.70;72.05
67457;BME280;54319;52.038;4.640;2023-07-20T08:16:44;101725.72;;;20.28;76.25
67457;BME280;54319;52.038;4.640;2023-07-20T08:19:11;101713.13;;;20.43;67.85
67457;BME280;54319;52.038;4.640;2023-07-20T08:21:39;101720.34;;;20.44;64.47
67457;BME280;54319;52.038;4.640;2023-07-20T08:24:06;101720.63;;;20.42;68.67
67457;BME280;54319;52.038;4.640;2023-07-20T08:26:33;101714.06;;;20.26;67.26
67457;BME280;54319;52.038;4.640;2023-07-20T08:29:00;101716.47;;;20.22;67.53
67457;BME280;54319;52.038;4.640;2023-07-20T08:31:26;101698.50;;;19.86;68.19
67457;BME280;54319;52.038;4.640;2023-07-20T08:33:53;101724.19;;;19.64;73.31
67457;BME280;54319;52.038;4.640;2023-07-20T08:36:22;101717.31;;;19.32;73.45
67457;BME280;54319;52.038;4.640;2023-07-20T08:38:50;101712.56;;;18.99;73.15
67457;BME280;54319;52.038;4.640;2023-07-20T08:41:17;101715.69;;;18.90;77.03
67457;BME280;54319;52.038;4.640;2023-07-20T08:43:46;101716.69;;;18.84;79.67
67457;BME280;54319;52.038;4.640;2023-07-20T08:46:13;101722.88;;;18.91;76.98
67457;BME280;54319;52.038;4.640;2023-07-20T08:48:41;101722.81;;;19.15;74.80
67457;BME280;54319;52.038;4.640;2023-07-20T08:51:08;101718.78;;;19.06;71.35
67457;BME280;54319;52.038;4.640;2023-07-20T08:53:38;101717.28;;;19.15;72.36
67457;BME280;54319;52.038;4.640;2023-07-20T08:56:06;101729.41;;;19.43;72.11
67457;BME280;54319;52.038;4.640;2023-07-20T08:58:36;101720.00;;;19.95;69.12
67457;BME280;54319;52.038;4.640;2023-07-20T09:01:04;101717.22;;;20.13;70.77
67457;BME280;54319;52.038;4.640;2023-07-20T09:03:30;101722.75;;;20.13;68.04
67457;BME280;54319;52.038;4.640;2023-07-20T09:05:57;101710.69;;;20.24;66.17
67457;BME280;54319;52.038;4.640;2023-07-20T09:08:24;101711.16;;;20.60;69.87
67457;BME280;54319;52.038;4.640;2023-07-20T09:10:51;101706.72;;;20.81;67.98
67457;BME280;54319;52.038;4.640;2023-07-20T09:13:19;101713.88;;;21.05;64.98
67457;BME280;54319;52.038;4.640;2023-07-20T09:15:46;101710.41;;;21.20;65.02
67457;BME280;54319;52.038;4.640;2023-07-20T09:18:23;101686.63;;;20.96;66.22
67457;BME280;54319;52.038;4.640;2023-07-20T09:20:50;101708.28;;;21.32;62.96
67457;BME280;54319;52.038;4.640;2023-07-20T09:23:17;101708.53;;;21.25;61.72
67457;BME280;54319;52.038;4.640;2023-07-20T09:25:43;101704.84;;;20.87;64.87
67457;BME280;54319;52.038;4.640;2023-07-20T09:28:12;101706.63;;;20.76;63.63
67457;BME280;54319;52.038;4.640;2023-07-20T09:30:41;101713.34;;;20.36;65.67
67457;BME280;54319;52.038;4.640;2023-07-20T09:33:18;101666.47;;;19.73;66.29
67457;BME280;54319;52.038;4.640;2023-07-20T09:35:44;101712.78;;;19.77;67.42
67457;BME280;54319;52.038;4.640;2023-07-20T09:38:11;101704.41;;;19.72;67.78
67457;BME280;54319;52.038;4.640;2023-07-20T09:40:38;101685.94;;;19.95;67.57
67457;BME280;54319;52.038;4.640;2023-07-20T09:43:07;101714.09;;;20.09;67.06
67457;BME280;54319;52.038;4.640;2023-07-20T09:45:35;101688.53;;;20.24;63.14
67457;BME280;54319;52.038;4.640;2023-07-20T09:48:07;101707.06;;;20.23;66.32
67457;BME280;54319;52.038;4.640;2023-07-20T09:50:39;101704.81;;;20.20;67.92
67457;BME280;54319;52.038;4.640;2023-07-20T09:53:07;101708.50;;;20.26;67.64
67457;BME280;54319;52.038;4.640;2023-07-20T09:55:34;101675.78;;;20.01;66.51
67457;BME280;54319;52.038;4.640;2023-07-20T09:58:02;101698.34;;;20.09;66.47
67457;BME280;54319;52.038;4.640;2023-07-20T10:00:32;101702.13;;;20.25;69.10
67457;BME280;54319;52.038;4.640;2023-07-20T10:03:03;101691.63;;;20.50;64.46
67457;BME280;54319;52.038;4.640;2023-07-20T10:05:33;101690.91;;;20.37;65.33
67457;BME280;54319;52.038;4.640;2023-07-20T10:08:02;101646.81;;;20.08;63.59
67457;BME280;54319;52.038;4.640;2023-07-20T10:10:31;101697.56;;;20.36;62.75
67457;BME280;54319;52.038;4.640;2023-07-20T10:13:00;101697.88;;;20.62;65.87
67457;BME280;54319;52.038;4.640;2023-07-20T10:15:29;101687.41;;;20.92;66.97
67457;BME280;54319;52.038;4.640;2023-07-20T10:18:02;101694.38;;;21.27;60.66
67457;BME280;54319;52.038;4.640;2023-07-20T10:20:32;101708.41;;;21.43;58.48
67457;BME280;54319;52.038;4.640;2023-07-20T10:23:00;101695.22;;;21.60;57.70
67457;BME280;54319;52.038;4.640;2023-07-20T10:25:28;101692.38;;;21.93;58.42
67457;BME280;54319;52.038;4.640;2023-07-20T10:27:56;101701.72;;;22.19;55.00
67457;BME280;54319;52.038;4.640;2023-07-20T10:30:25;101691.44;;;22.20;53.07
67457;BME280;54319;52.038;4.640;2023-07-20T10:32:52;101701.63;;;22.04;55.81
67457;BME280;54319;52.038;4.640;2023-07-20T10:35:19;101704.47;;;21.71;55.77
67457;BME280;54319;52.038;4.640;2023-07-20T10:37:49;101700.59;;;21.72;60.08
67457;BME280;54319;52.038;4.640;2023-07-20T10:40:25;101697.72;;;21.29;55.98
67457;BME280;54319;52.038;4.640;2023-07-20T10:42:57;101696.44;;;21.42;57.91
67457;BME280;54319;52.038;4.640;2023-07-20T10:45:33;101695.13;;;21.17;58.16
67457;BME280;54319;52.038;4.640;2023-07-20T10:48:03;101685.25;;;20.99;58.23
67457;BME280;54319;52.038;4.640;2023-07-20T10:50:30;101689.59;;;20.90;58.29
67457;BME280;54319;52.038;4.640;2023-07-20T10:53:12;101695.75;;;20.97;57.82
67457;BME280;54319;52.038;4.640;2023-07-20T10:55:39;101693.19;;;21.18;57.28
67457;BME280;54319;52.038;4.640;2023-07-20T10:58:10;101689.75;;;21.38;56.70
67457;BME280;54319;52.038;4.640;2023-07-20T11:00:38;101668.97;;;21.08;56.16
67457;BME280;54319;52.038;4.640;2023-07-20T11:03:28;101688.13;;;21.09;57.29
67457;BME280;54319;52.038;4.640;2023-07-20T11:05:56;101682.78;;;21.03;57.53
67457;BME280;54319;52.038;4.640;2023-07-20T11:08:41;101679.81;;;21.09;56.61
67457;BME280;54319;52.038;4.640;2023-07-20T11:11:29;101666.06;;;20.92;57.06
67457;BME280;54319;52.038;4.640;2023-07-20T11:13:59;101649.63;;;20.86;56.22
67457;BME280;54319;52.038;4.640;2023-07-20T11:16:37;101681.94;;;21.30;55.75
67457;BME280;54319;52.038;4.640;2023-07-20T11:19:05;101679.06;;;21.52;55.63
67457;BME280;54319;52.038;4.640;2023-07-20T11:21:36;101670.94;;;21.45;52.28
67457;BME280;54319;52.038;4.640;2023-07-20T11:24:06;101669.31;;;21.49;55.37
67457;BME280;54319;52.038;4.640;2023-07-20T11:26:44;101677.91;;;21.86;52.78
67457;BME280;54319;52.038;4.640;2023-07-20T11:29:11;101673.91;;;21.66;54.02
67457;BME280;54319;52.038;4.640;2023-07-20T11:31:38;101677.72;;;21.27;55.88
67457;BME280;54319;52.038;4.640;2023-07-20T11:34:05;101676.72;;;21.06;54.39
67457;BME280;54319;52.038;4.640;2023-07-20T11:36:32;101663.84;;;20.94;54.41
67457;BME280;54319;52.038;4.640;2023-07-20T11:39:02;101657.75;;;20.92;55.70
67457;BME280;54319;52.038;4.640;2023-07-20T11:41:31;101655.50;;;20.89;55.37
67457;BME280;54319;52.038;4.640;2023-07-20T11:43:59;101655.44;;;20.62;56.10
67457;BME280;54319;52.038;4.640;2023-07-20T11:46:29;101660.50;;;20.65;57.78
67457;BME280;54319;52.038;4.640;2023-07-20T11:48:57;101653.44;;;21.07;56.48
67457;BME280;54319;52.038;4.640;2023-07-20T11:51:26;101656.44;;;21.33;54.19
67457;BME280;54319;52.038;4.640;2023-07-20T11:53:53;101654.50;;;21.71;53.27
67457;BME280;54319;52.038;4.640;2023-07-20T11:56:21;101649.50;;;22.32;53.17
67457;BME280;54319;52.038;4.640;2023-07-20T11:58:49;101640.22;;;22.79;51.86
67457;BME280;54319;52.038;4.640;2023-07-20T12:01:17;101638.00;;;23.12;50.97
67457;BME280;54319;52.038;4.640;2023-07-20T12:03:47;101652.72;;;23.70;49.20
67457;BME280;54319;52.038;4.640;2023-07-20T12:06:14;101646.28;;;23.85;46.86
67457;BME280;54319;52.038;4.640;2023-07-20T12:08:41;101644.63;;;23.79;49.87
67457;BME280;54319;52.038;4.640;2023-07-20T12:11:08;101645.25;;;23.55;48.93
67457;BME280;54319;52.038;4.640;2023-07-20T12:13:36;101649.75;;;23.30;48.71
67457;BME280;54319;52.038;4.640;2023-07-20T12:16:09;101639.13;;;23.17;48.76
67457;BME280;54319;52.038;4.640;2023-07-20T12:18:36;101633.28;;;23.03;49.75
67457;BME280;54319;52.038;4.640;2023-07-20T12:21:02;101629.66;;;23.18;50.22
67457;BME280;54319;52.038;4.640;2023-07-20T12:23:34;101642.75;;;23.33;48.88
67457;BME280;54319;52.038;4.640;2023-07-20T12:26:01;101629.63;;;23.59;47.28
67457;BME280;54319;52.038;4.640;2023-07-20T12:28:29;101636.06;;;23.60;47.63
67457;BME280;54319;52.038;4.640;2023-07-20T12:30:56;101633.00;;;23.51;47.21
67457;BME280;54319;52.038;4.640;2023-07-20T12:33:24;101627.75;;;23.29;47.65
67457;BME280;54319;52.038;4.640;2023-07-20T12:35:51;101634.03;;;23.81;48.21
67457;BME280;54319;52.038;4.640;2023-07-20T12:38:21;101634.19;;;24.26;46.14
67457;BME280;54319;52.038;4.640;2023-07-20T12:40:48;101630.59;;;24.15;45.08
67457;BME280;54319;52.038;4.640;2023-07-20T12:43:15;101632.31;;;23.95;44.62
67457;BME280;54319;52.038;4.640;2023-07-20T12:45:42;101631.06;;;23.41;46.03
67457;BME280;54319;52.038;4.640;2023-07-20T12:48:08;101636.88;;;23.19;47.11
67457;BME280;54319;52.038;4.640;2023-07-20T12:50:37;101621.03;;;22.88;50.27